Time;durP1;ratioP1;P1;durP2;ratioP2;P2;SDS_P1;SDS_P2;PMS_P1;PMS_P2;Temp;Humidity;BMP_temperature;BMP_pressure;BME280_temperature;BME280_humidity;BME280_pressure;Samples;Min_cycle;Max_cycle;Signal;HPM_P1;HPM_P2
2021/06/14 00:02:23;;;;;;;8.50;7.78;;;;;;;22.18;75.78;100468.84;6337022;22;20096;-73
2021/06/14 00:04:52;;;;;;;7.72;6.93;;;;;;;22.30;75.25;100470.22;6337818;22;20002;-72
2021/06/14 00:07:19;;;;;;;5.82;5.32;;;;;;;22.29;75.35;100467.81;6338156;22;20393;-72
2021/06/14 00:09:48;;;;;;;6.13;5.65;;;;;;;22.30;75.24;100460.91;6338243;22;20006;-72
2021/06/14 00:12:20;;;;;;;5.30;4.95;;;;;;;22.25;74.49;100453.72;6338129;22;20007;-72
2021/06/14 00:14:46;;;;;;;6.40;5.80;;;;;;;22.24;74.41;100457.78;6337773;22;20017;-72
2021/06/14 00:17:14;;;;;;;8.52;6.80;;;;;;;22.25;74.39;100450.88;6337755;22;20003;-72
2021/06/14 00:19:43;;;;;;;8.98;8.15;;;;;;;22.26;74.48;100457.34;6337740;22;20003;-72
2021/06/14 00:22:14;;;;;;;9.32;8.57;;;;;;;22.26;74.94;100452.47;6337011;22;20068;-73
2021/06/14 00:24:43;;;;;;;8.45;7.75;;;;;;;22.31;74.84;100439.81;6337699;22;19999;-73
2021/06/14 00:27:10;;;;;;;8.98;8.32;;;;;;;22.21;75.10;100442.47;6337736;22;20010;-72
2021/06/14 00:29:39;;;;;;;8.95;8.07;;;;;;;22.09;75.51;100448.75;6338303;22;20319;-73
2021/06/14 00:32:05;;;;;;;8.35;7.63;;;;;;;22.03;75.66;100446.84;6337687;22;20003;-74
2021/06/14 00:34:34;;;;;;;7.65;7.05;;;;;;;21.94;76.15;100439.75;6337900;22;20322;-73
2021/06/14 00:37:02;;;;;;;8.45;7.85;;;;;;;21.96;75.95;100448.59;6337908;22;20090;-72
2021/06/14 00:39:30;;;;;;;9.30;8.50;;;;;;;22.10;75.72;100458.88;6337367;22;20023;-72
2021/06/14 00:41:58;;;;;;;7.88;7.28;;;;;;;21.96;76.07;100459.13;6339085;22;19999;-73
2021/06/14 00:44:30;;;;;;;9.15;8.18;;;;;;;21.95;76.24;100457.53;6312235;22;20435;-74
2021/06/14 00:46:58;;;;;;;8.82;8.10;;;;;;;21.93;76.48;100460.00;6313465;22;20006;-74
2021/06/14 00:49:27;;;;;;;8.25;7.53;;;;;;;21.96;76.56;100459.94;6313444;22;20003;-74
2021/06/14 00:51:52;;;;;;;7.78;7.07;;;;;;;21.79;76.63;100455.41;6313427;22;20094;-72
2021/06/14 00:54:18;;;;;;;9.00;8.15;;;;;;;21.79;77.07;100455.41;6313301;22;20057;-72
2021/06/14 00:56:46;;;;;;;8.32;7.53;;;;;;;21.73;77.45;100456.31;6313364;22;20007;-72
2021/06/14 00:59:14;;;;;;;6.40;5.85;;;;;;;21.66;77.82;100457.25;6314013;22;20003;-73
2021/06/14 01:01:42;;;;;;;7.50;6.90;;;;;;;21.62;77.97;100448.03;6313382;22;20003;-72
2021/06/14 01:04:08;;;;;;;8.40;7.72;;;;;;;21.67;77.70;100447.53;6313237;22;20011;-72
2021/06/14 01:06:34;;;;;;;8.82;6.97;;;;;;;21.64;77.90;100448.41;6313329;22;20006;-73
2021/06/14 01:08:59;;;;;;;7.25;6.65;;;;;;;21.64;77.70;100448.41;6313956;22;20006;-73
2021/06/14 01:11:34;;;;;;;6.78;6.28;;;;;;;21.69;77.55;100450.75;6313615;22;20059;-72
2021/06/14 01:14:36;;;;;;;7.28;6.60;;;;;;;21.69;76.99;100439.41;6314247;22;20311;-73
2021/06/14 01:17:13;;;;;;;7.47;6.88;;;;;;;21.74;77.08;100450.25;6266233;22;20014;-72
2021/06/14 01:20:15;;;;;;;8.90;7.15;;;;;;;21.64;77.08;100448.41;6313201;22;20014;-74
2021/06/14 01:23:06;;;;;;;6.70;6.10;;;;;;;21.63;77.07;100441.16;6313725;22;20382;-73
2021/06/14 01:25:54;;;;;;;6.45;5.82;;;;;;;21.62;76.84;100439.53;6313096;22;20010;-73
2021/06/14 01:28:24;;;;;;;7.10;6.45;;;;;;;21.70;76.44;100441.00;6313493;22;20499;-73
2021/06/14 01:30:53;;;;;;;6.82;6.15;;;;;;;21.69;76.03;100445.88;6313034;22;20007;-72
2021/06/14 01:33:24;;;;;;;5.93;5.43;;;;;;;21.68;76.18;100432.97;6313111;22;20096;-73
2021/06/14 01:35:56;;;;;;;6.90;6.30;;;;;;;21.73;76.12;100433.66;6313782;22;20029;-72
2021/06/14 01:38:24;;;;;;;6.90;6.05;;;;;;;21.68;75.92;100424.47;6313000;22;20007;-72
2021/06/14 01:40:54;;;;;;;8.13;7.43;;;;;;;21.80;75.39;100425.84;6327264;22;20057;-72
2021/06/14 01:43:26;;;;;;;8.13;7.43;;;;;;;21.77;75.49;100418.22;6339187;22;20373;-72
2021/06/14 01:45:58;;;;;;;8.73;7.97;;;;;;;21.78;75.73;100425.47;6339254;22;20324;-73
2021/06/14 01:48:25;;;;;;;9.48;8.65;;;;;;;21.67;76.05;100424.88;6339634;22;20002;-72
2021/06/14 01:50:55;;;;;;;8.95;8.05;;;;;;;21.69;76.30;100428.09;6339601;22;20007;-72
2021/06/14 01:53:28;;;;;;;10.25;9.35;;;;;;;21.61;76.33;100423.78;6339236;22;20407;-72
2021/06/14 01:55:58;;;;;;;9.82;9.00;;;;;;;21.59;76.86;100424.22;6338937;22;20049;-73
2021/06/14 01:58:24;;;;;;;9.88;9.07;;;;;;;21.54;76.69;100426.75;6339146;22;20014;-72
2021/06/14 02:00:53;;;;;;;9.95;9.10;;;;;;;21.57;76.99;100417.38;6339460;22;20013;-72
2021/06/14 02:03:20;;;;;;;10.70;9.68;;;;;;;21.55;77.00;100411.34;6338692;22;20013;-72
2021/06/14 02:05:49;;;;;;;11.25;10.25;;;;;;;21.61;76.99;100409.63;6338746;22;20006;-72
2021/06/14 02:08:20;;;;;;;11.32;10.07;;;;;;;21.60;77.08;100416.53;6339013;22;20323;-73
2021/06/14 02:10:50;;;;;;;9.10;8.20;;;;;;;21.58;76.79;100416.16;6338739;22;20029;-72
2021/06/14 02:13:19;;;;;;;8.90;8.05;;;;;;;21.53;76.82;100425.97;6339007;22;20014;-72
2021/06/14 02:15:48;;;;;;;7.30;6.63;;;;;;;21.56;76.64;100419.41;6339744;22;20010;-72
2021/06/14 02:18:14;;;;;;;8.00;7.30;;;;;;;21.52;76.90;100412.22;6338668;22;20013;-72
2021/06/14 02:20:44;;;;;;;7.43;6.50;;;;;;;21.49;77.17;100413.88;6339616;22;20299;-72
2021/06/14 02:23:14;;;;;;;7.00;6.40;;;;;;;21.49;77.13;100405.41;6339214;22;20023;-73
2021/06/14 02:25:43;;;;;;;7.72;7.03;;;;;;;21.45;76.83;100402.63;6339256;22;20370;-72
2021/06/14 02:28:12;;;;;;;7.80;7.20;;;;;;;21.44;77.27;100405.91;6338928;22;20010;-71
2021/06/14 02:30:40;;;;;;;7.13;6.50;;;;;;;21.47;77.20;100407.88;6338571;22;20006;-72
2021/06/14 02:33:09;;;;;;;7.40;6.80;;;;;;;21.49;77.13;100413.09;6338517;22;20007;-73
2021/06/14 02:35:35;;;;;;;7.90;7.30;;;;;;;21.50;77.25;100406.19;6338494;22;20010;-74
2021/06/14 02:38:04;;;;;;;7.70;7.00;;;;;;;21.45;76.97;100408.28;6338362;22;20030;-72
2021/06/14 02:40:33;;;;;;;6.90;6.38;;;;;;;21.43;77.13;100402.25;6337949;22;20011;-74
2021/06/14 02:43:03;;;;;;;7.75;7.05;;;;;;;21.40;77.11;100394.63;6338299;22;20078;-73
2021/06/14 02:45:31;;;;;;;8.32;7.65;;;;;;;21.42;77.10;100392.19;6339095;22;20042;-73
2021/06/14 02:47:57;;;;;;;7.38;6.78;;;;;;;21.42;77.06;100408.38;6339117;22;20010;-71
2021/06/14 02:50:31;;;;;;;7.68;6.97;;;;;;;21.34;77.35;100401.22;6338361;22;20014;-72
2021/06/14 02:53:00;;;;;;;11.63;10.63;;;;;;;21.41;77.00;100398.25;6338660;22;20327;-72
2021/06/14 02:55:31;;;;;;;10.55;9.55;;;;;;;21.35;77.28;100395.13;6338600;22;20006;-72
2021/06/14 02:57:59;;;;;;;9.25;8.38;;;;;;;21.33;77.08;100393.97;6338331;22;20003;-72
2021/06/14 03:00:33;;;;;;;14.35;12.88;;;;;;;21.31;77.37;100397.25;6337870;22;20042;-72
2021/06/14 03:03:02;;;;;;;11.88;10.88;;;;;;;21.27;77.60;100396.47;6338529;22;19999;-73
2021/06/14 03:05:29;;;;;;;13.13;11.98;;;;;;;21.28;77.27;100397.25;6338237;22;20435;-73
2021/06/14 03:08:01;;;;;;;13.68;12.32;;;;;;;21.31;76.90;100387.94;6338234;22;20401;-72
2021/06/14 03:10:29;;;;;;;11.13;10.07;;;;;;;21.27;76.82;100395.66;6338641;22;20006;-73
2021/06/14 03:12:57;;;;;;;12.65;11.55;;;;;;;21.20;76.80;100399.44;6338242;22;20002;-72
2021/06/14 03:15:26;;;;;;;16.20;14.55;;;;;;;21.21;77.11;100386.88;6338906;22;20007;-72
2021/06/14 03:17:53;;;;;;;16.52;15.02;;;;;;;21.17;77.24;100386.13;6338183;22;20003;-72
2021/06/14 03:20:22;;;;;;;18.95;17.35;;;;;;;21.20;76.99;100385.28;6338450;22;20014;-73
2021/06/14 03:22:51;;;;;;;15.00;13.75;;;;;;;21.18;77.20;100387.72;6338388;22;20011;-72
2021/06/14 03:25:17;;;;;;;10.90;9.88;;;;;;;21.05;77.69;100383.91;6338066;22;20002;-72
2021/06/14 03:27:44;;;;;;;23.42;21.05;;;;;;;21.04;77.51;100382.31;6338086;22;20007;-73
2021/06/14 03:30:12;;;;;;;19.27;17.58;;;;;;;21.03;77.40;100386.38;6338056;22;20003;-73
2021/06/14 03:32:43;;;;;;;14.82;13.43;;;;;;;20.90;76.97;100352.25;6338489;22;20010;-72
2021/06/14 03:35:13;;;;;;;13.18;12.07;;;;;;;20.96;77.44;100378.00;6339655;22;20048;-73
2021/06/14 03:37:42;;;;;;;13.57;12.38;;;;;;;20.97;77.67;100388.09;6338063;22;20018;-75
2021/06/14 03:40:11;;;;;;;16.63;15.02;;;;;;;20.95;77.64;100385.69;6337869;22;20465;-72
2021/06/14 03:42:37;;;;;;;22.02;19.85;;;;;;;20.97;77.65;100390.91;6338311;22;20007;-73
2021/06/14 03:45:03;;;;;;;31.42;28.45;;;;;;;20.96;77.58;100400.63;6338623;22;20010;-73
2021/06/14 03:47:32;;;;;;;44.13;39.80;;;;;;;21.01;77.38;100400.16;6337725;22;20011;-72
2021/06/14 03:49:57;;;;;;;43.30;39.17;;;;;;;21.03;77.37;100403.34;6337973;22;20089;-73
2021/06/14 03:52:25;;;;;;;39.30;35.63;;;;;;;21.06;76.95;100396.84;6337838;22;20034;-72
2021/06/14 03:54:53;;;;;;;44.67;40.42;;;;;;;21.13;76.96;100396.69;6337867;22;20003;-72
2021/06/14 03:57:21;;;;;;;45.45;41.25;;;;;;;21.12;76.63;100392.28;6338195;22;20042;-72
2021/06/14 03:59:50;;;;;;;41.72;37.47;;;;;;;21.43;76.24;100404.31;6337762;22;20081;-72
2021/06/14 04:02:15;;;;;;;28.65;25.70;;;;;;;21.72;74.21;100407.38;6337930;22;20441;-73
2021/06/14 04:04:47;;;;;;;13.13;11.93;;;;;;;21.90;73.54;100410.69;6338221;22;20007;-73
2021/06/14 04:07:15;;;;;;;10.85;9.85;;;;;;;22.16;72.62;100394.00;6337869;22;20006;-73
2021/06/14 04:09:44;;;;;;;14.93;13.45;;;;;;;22.48;71.03;100405.44;6337848;22;20089;-73
2021/06/14 04:12:10;;;;;;;16.90;15.15;;;;;;;22.81;70.05;100408.34;6337740;22;20059;-73
2021/06/14 04:14:42;;;;;;;15.55;14.25;;;;;;;23.12;69.43;100408.81;6338832;22;20007;-73
2021/06/14 04:17:09;;;;;;;16.87;15.30;;;;;;;23.42;67.98;100407.63;6337487;22;20026;-72
2021/06/14 04:19:36;;;;;;;17.98;16.27;;;;;;;23.67;66.93;100407.00;6340659;22;20010;-73
2021/06/14 04:22:05;;;;;;;14.68;13.20;;;;;;;23.88;66.12;100414.13;6339639;22;19999;-73
2021/06/14 04:24:34;;;;;;;15.05;12.68;;;;;;;24.12;64.94;100411.81;6339699;22;20006;-73
2021/06/14 04:27:02;;;;;;;12.63;10.85;;;;;;;24.43;64.00;100414.19;6339707;22;20090;-73
2021/06/14 04:29:31;;;;;;;11.23;10.15;;;;;;;24.71;63.27;100409.66;6340458;22;20007;-72
2021/06/14 04:31:58;;;;;;;12.25;10.32;;;;;;;24.67;62.52;100411.84;6340403;22;20090;-73
2021/06/14 04:34:25;;;;;;;8.77;7.97;;;;;;;24.63;62.68;100405.44;6341684;22;20013;-73
2021/06/14 04:36:56;;;;;;;8.27;6.47;;;;;;;24.88;62.57;100410.34;6339939;22;20437;-73
2021/06/14 04:39:24;;;;;;;9.80;8.95;;;;;;;25.03;61.42;100406.56;6339302;22;20007;-73
2021/06/14 04:41:50;;;;;;;8.60;7.90;;;;;;;25.21;61.30;100406.00;6313791;22;20296;-72
2021/06/14 04:44:18;;;;;;;9.45;8.63;;;;;;;25.24;60.92;100402.22;6313475;22;20014;-73
2021/06/14 04:46:43;;;;;;;9.93;9.13;;;;;;;25.44;60.38;100401.97;6313878;22;20434;-72
2021/06/14 04:49:12;;;;;;;12.70;11.50;;;;;;;25.25;61.64;100400.22;6313497;22;20007;-72
2021/06/14 04:51:38;;;;;;;12.85;11.55;;;;;;;25.59;60.70;100411.59;6313404;22;20017;-72
2021/06/14 04:54:04;;;;;;;11.65;10.52;;;;;;;26.00;59.28;100401.22;6340618;22;20026;-72
2021/06/14 04:56:32;;;;;;;13.25;11.95;;;;;;;26.12;58.60;100406.03;6313674;22;20087;-72
2021/06/14 04:58:58;;;;;;;11.65;10.18;;;;;;;26.22;58.17;100409.75;6312950;22;20014;-72
2021/06/14 05:01:27;;;;;;;11.18;10.05;;;;;;;26.16;59.09;100407.97;6313161;22;20011;-72
2021/06/14 05:03:55;;;;;;;11.43;10.05;;;;;;;26.69;56.49;100416.53;6313936;22;20082;-72
2021/06/14 05:06:27;;;;;;;10.18;9.27;;;;;;;27.08;55.36;100406.41;6313171;22;20083;-72
2021/06/14 05:08:52;;;;;;;9.50;8.32;;;;;;;27.27;54.88;100410.06;6313225;22;20007;-72
2021/06/14 05:11:27;;;;;;;9.85;9.00;;;;;;;27.36;54.40;100413.75;6313538;22;20022;-72
2021/06/14 05:13:55;;;;;;;12.65;10.55;;;;;;;26.55;56.49;100412.97;6313118;22;20082;-72
2021/06/14 05:16:27;;;;;;;10.52;9.52;;;;;;;26.73;55.95;100420.03;6313425;22;20010;-73
2021/06/14 05:18:55;;;;;;;10.95;9.82;;;;;;;26.71;55.62;100416.84;6313883;22;20006;-72
2021/06/14 05:21:24;;;;;;;9.57;8.68;;;;;;;27.06;55.18;100421.13;6313458;22;19999;-72
2021/06/14 05:23:53;;;;;;;9.07;8.27;;;;;;;27.73;53.39;100415.88;6313116;22;20009;-72
2021/06/14 05:26:21;;;;;;;12.30;9.10;;;;;;;27.49;53.74;100430.78;6313074;22;20097;-72
2021/06/14 05:28:48;;;;;;;9.07;8.13;;;;;;;27.89;53.26;100421.28;6313799;22;20327;-72
2021/06/14 05:31:19;;;;;;;11.13;9.43;;;;;;;27.87;53.41;100420.97;6312546;22;20006;-73
2021/06/14 05:33:47;;;;;;;11.40;10.25;;;;;;;28.02;53.18;100427.66;6340628;22;20007;-73
2021/06/14 05:36:18;;;;;;;10.07;9.15;;;;;;;28.64;51.53;100432.94;6312884;22;20007;-72
2021/06/14 05:38:47;;;;;;;13.95;10.95;;;;;;;28.74;51.81;100430.84;6313166;22;20033;-73
2021/06/14 05:41:15;;;;;;;11.95;8.88;;;;;;;28.85;50.92;100430.31;6331888;22;20068;-71
2021/06/14 05:43:44;;;;;;;10.15;9.15;;;;;;;29.02;50.76;100427.88;6339266;22;20030;-73
2021/06/14 05:46:12;;;;;;;8.98;8.13;;;;;;;29.00;50.53;100434.09;6338399;22;20002;-73
2021/06/14 05:48:38;;;;;;;10.00;9.00;;;;;;;29.26;50.55;100428.72;6340551;22;20003;-73
2021/06/14 05:51:06;;;;;;;7.80;7.10;;;;;;;29.45;50.21;100433.03;6338390;22;19999;-71
2021/06/14 05:53:35;;;;;;;8.93;7.90;;;;;;;29.70;49.44;100431.78;6338422;22;20002;-72
2021/06/14 05:56:03;;;;;;;8.88;8.10;;;;;;;29.69;49.78;100433.06;6338537;22;20003;-72
2021/06/14 05:58:32;;;;;;;10.00;9.10;;;;;;;29.02;51.30;100434.41;6338408;22;20044;-72
2021/06/14 06:00:58;;;;;;;9.80;8.90;;;;;;;29.53;48.98;100436.38;6338840;22;20028;-72
2021/06/14 06:03:26;;;;;;;10.40;9.43;;;;;;;29.15;49.84;100437.84;6338446;22;20379;-72
2021/06/14 06:05:52;;;;;;;11.88;10.40;;;;;;;28.55;52.27;100441.56;6338488;22;20007;-72
2021/06/14 06:08:17;;;;;;;8.35;7.63;;;;;;;28.87;50.86;100444.94;6338331;22;20002;-72
2021/06/14 06:10:44;;;;;;;8.57;6.85;;;;;;;29.74;49.19;100438.13;6338913;22;20060;-72
2021/06/14 06:13:12;;;;;;;8.48;7.50;;;;;;;30.16;47.03;100440.03;6338391;22;20386;-73
2021/06/14 06:15:37;;;;;;;8.57;7.72;;;;;;;29.36;48.50;100435.97;6338393;22;20014;-72
2021/06/14 06:18:06;;;;;;;6.75;6.07;;;;;;;29.50;47.35;100431.56;6338195;22;20007;-72
2021/06/14 06:20:31;;;;;;;6.05;5.45;;;;;;;29.86;45.86;100441.22;6338835;22;20023;-73
2021/06/14 06:23:00;;;;;;;6.03;5.53;;;;;;;28.83;47.28;100435.75;6338328;22;20327;-74
2021/06/14 06:25:27;;;;;;;7.18;5.95;;;;;;;29.45;46.83;100438.75;6339778;22;20014;-74
2021/06/14 06:27:56;;;;;;;5.80;5.30;;;;;;;29.28;44.91;100433.94;6338707;22;20143;-72
2021/06/14 06:30:26;;;;;;;5.55;4.47;;;;;;;29.85;43.41;100431.03;6338662;22;20093;-72
2021/06/14 06:32:52;;;;;;;5.15;4.22;;;;;;;29.51;42.69;100418.84;6340354;22;20005;-73
2021/06/14 06:35:22;;;;;;;4.20;3.83;;;;;;;30.15;42.55;100434.75;6338758;22;20003;-72
2021/06/14 06:37:51;;;;;;;4.65;4.25;;;;;;;30.48;42.14;100435.41;6338377;22;20060;-72
2021/06/14 06:40:17;;;;;;;3.80;3.50;;;;;;;30.53;41.53;100434.69;6338078;22;20334;-73
2021/06/14 06:42:51;;;;;;;4.60;3.75;;;;;;;31.11;39.45;100437.19;6337964;22;19998;-73
2021/06/14 06:45:17;;;;;;;4.40;4.00;;;;;;;30.71;39.88;100436.59;6338038;22;20033;-74
2021/06/14 06:47:43;;;;;;;6.22;4.60;;;;;;;30.77;40.13;100440.34;6338048;22;20003;-73
2021/06/14 06:50:10;;;;;;;6.97;4.45;;;;;;;30.81;39.68;100434.41;6338360;22;20015;-73
2021/06/14 06:52:39;;;;;;;5.45;4.90;;;;;;;30.58;41.23;100435.31;6337607;22;20032;-72
2021/06/14 06:55:10;;;;;;;5.25;4.53;;;;;;;30.42;41.60;100437.38;6337946;22;20064;-72
2021/06/14 06:57:39;;;;;;;5.35;4.15;;;;;;;30.50;41.15;100434.88;6338021;22;20024;-72
2021/06/14 07:00:08;;;;;;;4.43;4.03;;;;;;;30.04;41.87;100432.44;6338420;22;20011;-72
2021/06/14 07:02:36;;;;;;;4.05;3.75;;;;;;;30.92;40.05;100439.53;6337871;22;20059;-72
2021/06/14 07:05:05;;;;;;;4.38;3.97;;;;;;;30.71;38.56;100430.84;6338181;22;20447;-72
2021/06/14 07:07:31;;;;;;;3.70;3.40;;;;;;;30.28;38.07;100429.53;6337364;22;20013;-73
2021/06/14 07:09:58;;;;;;;4.32;3.55;;;;;;;29.68;38.60;100427.84;6337291;22;20007;-71
2021/06/14 07:12:27;;;;;;;4.38;4.07;;;;;;;29.78;37.86;100428.56;6337987;22;20013;-72
2021/06/14 07:14:58;;;;;;;2.95;2.75;;;;;;;30.52;36.42;100429.44;6337971;22;20449;-73
2021/06/14 07:17:27;;;;;;;4.72;3.30;;;;;;;30.68;36.09;100434.69;6337971;22;20003;-72
2021/06/14 07:19:57;;;;;;;3.47;3.20;;;;;;;31.12;35.28;100433.84;6337972;22;20006;-72
2021/06/14 07:22:26;;;;;;;3.92;3.25;;;;;;;31.32;35.35;100424.50;6337920;22;20102;-72
2021/06/14 07:24:54;;;;;;;3.17;2.85;;;;;;;32.04;33.91;100430.38;6338289;22;20018;-73
2021/06/14 07:27:25;;;;;;;3.08;2.88;;;;;;;31.97;32.06;100425.06;6338985;22;20011;-73
2021/06/14 07:29:56;;;;;;;3.00;2.80;;;;;;;32.31;32.77;100423.31;6337977;22;20017;-72
2021/06/14 07:32:24;;;;;;;2.95;2.75;;;;;;;32.89;32.22;100423.34;6338411;22;20025;-72
2021/06/14 07:34:53;;;;;;;2.85;2.65;;;;;;;33.22;31.21;100419.13;6338838;22;20010;-72
2021/06/14 07:37:21;;;;;;;2.63;2.40;;;;;;;33.12;31.22;100412.75;6338062;22;20015;-72
2021/06/14 07:39:52;;;;;;;2.50;2.30;;;;;;;33.53;30.98;100421.16;6337583;22;20014;-72
2021/06/14 07:42:21;;;;;;;2.45;2.35;;;;;;;34.32;28.74;100420.09;6338244;22;20402;-73
2021/06/14 07:44:49;;;;;;;2.85;2.53;;;;;;;34.92;26.82;100406.19;6338771;22;20076;-72
2021/06/14 07:47:15;;;;;;;2.67;2.47;;;;;;;34.56;28.13;100418.81;6337447;22;20099;-72
2021/06/14 07:49:46;;;;;;;3.28;2.90;;;;;;;33.58;29.68;100411.72;6337409;22;20010;-73
2021/06/14 07:52:14;;;;;;;3.90;2.85;;;;;;;32.90;30.36;100404.75;6337282;22;20013;-73
2021/06/14 07:54:40;;;;;;;2.72;2.53;;;;;;;32.78;30.38;100403.09;6337598;22;20007;-73
2021/06/14 07:57:07;;;;;;;2.20;2.00;;;;;;;33.29;29.15;100407.91;6338026;22;20094;-72
2021/06/14 07:59:34;;;;;;;2.50;2.30;;;;;;;33.36;29.42;100400.84;6336753;22;19999;-73
2021/06/14 08:02:00;;;;;;;2.30;2.20;;;;;;;33.54;29.79;100402.53;6337494;22;20441;-73
2021/06/14 08:04:27;;;;;;;2.25;2.15;;;;;;;33.70;28.48;100398.91;6337853;22;20036;-73
2021/06/14 08:06:52;;;;;;;2.40;2.20;;;;;;;34.57;27.64;100392.31;6337787;22;20011;-73
2021/06/14 08:09:25;;;;;;;3.17;2.20;;;;;;;34.93;27.31;100399.09;6338291;22;20362;-73
2021/06/14 08:11:50;;;;;;;;;;;;;;;33.86;27.94;100398.19;6337647;22;20013;-73
2021/06/14 08:14:21;;;;;;;2.28;2.08;;;;;;;34.03;28.33;100391.69;6338255;22;19902;-72
2021/06/14 08:16:50;;;;;;;2.65;2.45;;;;;;;34.31;27.97;100386.75;6338281;22;20104;-73
2021/06/14 08:22:11;;;;;;;2.60;2.45;;;;;;;32.11;30.90;100391.72;6348258;22;20010;-73
2021/06/14 08:27:23;;;;;;;2.60;2.40;;;;;;;32.43;31.19;100388.91;6339391;22;20064;-73
2021/06/14 08:29:52;;;;;;;3.45;3.15;;;;;;;31.81;32.01;100394.81;6337461;22;20017;-72
2021/06/14 08:32:17;;;;;;;2.13;2.03;;;;;;;32.51;30.98;100396.59;6339190;22;19999;-72
2021/06/14 08:34:43;;;;;;;2.67;2.47;;;;;;;32.54;30.31;100392.66;6337379;22;20024;-72
2021/06/14 08:37:12;;;;;;;2.00;1.90;;;;;;;32.68;28.39;100379.44;6337515;22;20057;-72
2021/06/14 08:39:38;;;;;;;2.60;2.40;;;;;;;32.76;28.38;100386.31;6337273;22;20070;-72
2021/06/14 08:42:03;;;;;;;2.22;2.10;;;;;;;34.22;27.00;100378.34;6311201;22;20035;-71
2021/06/14 08:44:29;;;;;;;2.08;1.98;;;;;;;35.06;25.57;100395.69;6310829;22;20018;-72
2021/06/14 08:46:58;;;;;;;6.05;2.78;;;;;;;35.14;26.73;100387.25;6311196;22;20003;-72
2021/06/14 08:49:26;;;;;;;2.50;2.33;;;;;;;33.50;28.17;100384.66;6311088;22;20003;-72
2021/06/14 08:51:57;;;;;;;2.55;2.35;;;;;;;32.08;30.58;100387.00;6311004;22;20434;-72
2021/06/14 08:54:22;;;;;;;3.20;2.90;;;;;;;32.31;30.95;100388.78;6311212;22;20006;-72
2021/06/14 08:56:51;;;;;;;6.00;3.63;;;;;;;32.04;30.76;100386.44;6311080;22;20088;-73
2021/06/14 08:59:17;;;;;;;3.38;3.08;;;;;;;32.57;29.87;100390.88;6311264;22;20015;-72
2021/06/14 09:01:42;;;;;;;3.17;2.53;;;;;;;32.39;29.92;100383.41;6285648;22;20017;-72
2021/06/14 09:04:11;;;;;;;2.80;2.60;;;;;;;31.95;30.13;100381.63;6311171;22;20007;-73
2021/06/14 09:06:39;;;;;;;2.53;2.33;;;;;;;31.71;30.39;100387.59;6312794;22;20039;-72
2021/06/14 09:09:09;;;;;;;8.48;2.15;;;;;;;31.50;28.93;100375.34;6313126;22;20003;-72
2021/06/14 09:11:48;;;;;;;2.60;2.40;;;;;;;31.64;29.62;100367.94;6313310;22;20011;-72
2021/06/14 09:14:22;;;;;;;2.90;2.70;;;;;;;31.49;29.87;100375.84;6312939;22;20013;-71
2021/06/14 09:16:50;;;;;;;2.30;2.20;;;;;;;31.06;29.97;100372.63;6312956;22;20437;-72
2021/06/14 09:19:31;;;;;;;3.67;2.72;;;;;;;30.81;30.33;100374.09;6313198;22;20084;-72
2021/06/14 09:22:14;;;;;;;2.80;2.60;;;;;;;31.42;29.31;100367.63;6313198;22;20064;-72
2021/06/14 09:25:04;;;;;;;4.03;3.72;;;;;;;31.12;35.10;100358.34;6312702;22;20014;-73
2021/06/14 09:27:42;;;;;;;4.15;3.50;;;;;;;32.67;32.76;100357.69;6312860;22;20082;-72
2021/06/14 09:30:21;;;;;;;8.10;4.10;;;;;;;32.60;36.35;100363.94;6312789;22;20006;-72
2021/06/14 09:32:55;;;;;;;5.00;4.55;;;;;;;32.65;35.89;100365.25;6312705;22;20081;-73
2021/06/14 09:35:22;;;;;;;5.13;4.72;;;;;;;31.75;37.61;100370.94;6313896;22;20304;-71
2021/06/14 09:37:57;;;;;;;4.15;3.85;;;;;;;31.80;35.99;100355.84;6313646;22;20345;-71
2021/06/14 09:40:31;;;;;;;6.45;4.70;;;;;;;31.29;38.76;100368.00;6321176;22;20046;-71
2021/06/14 09:42:58;;;;;;;5.70;3.92;;;;;;;31.69;37.82;100367.16;6338846;22;20327;-71
2021/06/14 09:45:26;;;;;;;8.40;4.50;;;;;;;32.05;36.53;100362.88;6339300;22;20060;-73
2021/06/14 09:47:55;;;;;;;4.88;4.47;;;;;;;32.45;36.80;100354.66;6340381;22;20442;-73
2021/06/14 09:50:30;;;;;;;3.95;3.58;;;;;;;33.51;34.70;100355.34;6339201;22;20011;-73
2021/06/14 09:53:11;;;;;;;5.10;4.40;;;;;;;32.67;35.77;100346.19;6339451;22;20326;-72
2021/06/14 09:55:43;;;;;;;4.57;4.18;;;;;;;32.80;34.54;100345.72;6339368;22;20007;-71
2021/06/14 09:58:20;;;;;;;6.55;4.15;;;;;;;32.86;34.67;100353.09;6338645;22;20011;-72
2021/06/14 10:00:54;;;;;;;4.55;4.00;;;;;;;32.44;35.98;100347.28;6339027;22;20494;-71
2021/06/14 10:03:24;;;;;;;4.53;4.13;;;;;;;31.56;38.77;100341.69;6338753;22;20006;-72
2021/06/14 10:05:55;;;;;;;4.40;3.90;;;;;;;31.73;38.95;100341.88;6339503;22;20028;-73
2021/06/14 10:08:34;;;;;;;5.63;4.10;;;;;;;32.34;37.99;100346.69;6339334;22;20014;-72
2021/06/14 10:11:13;;;;;;;4.82;3.85;;;;;;;32.63;37.07;100344.81;6339333;22;20068;-73
2021/06/14 10:13:41;;;;;;;4.28;3.97;;;;;;;32.61;37.43;100344.56;6340114;22;20338;-72
2021/06/14 10:16:22;;;;;;;4.30;4.00;;;;;;;31.91;37.87;100348.63;6338351;22;20086;-73
2021/06/14 10:18:57;;;;;;;4.50;3.55;;;;;;;31.92;36.97;100335.81;6338942;22;20025;-73
2021/06/14 10:21:33;;;;;;;5.50;4.95;;;;;;;31.39;38.88;100334.16;6338531;22;20003;-71
2021/06/14 10:24:12;;;;;;;4.07;3.78;;;;;;;31.71;38.28;100340.81;6338682;22;20011;-71
2021/06/14 10:26:41;;;;;;;4.55;4.15;;;;;;;31.72;38.38;100342.38;6338409;22;20087;-71
2021/06/14 10:29:12;;;;;;;4.07;3.78;;;;;;;32.20;37.30;100336.88;6338926;22;20012;-72
2021/06/14 10:31:39;;;;;;;3.35;3.05;;;;;;;32.67;35.94;100328.09;6339202;22;20323;-72
2021/06/14 10:34:09;;;;;;;3.60;3.30;;;;;;;32.91;35.29;100339.28;6340327;22;20029;-71
2021/06/14 10:36:42;;;;;;;3.97;3.38;;;;;;;32.79;34.85;100330.53;6339151;22;20318;-72
2021/06/14 10:39:13;;;;;;;3.70;3.25;;;;;;;32.58;35.87;100332.75;6339834;22;20078;-71
2021/06/14 10:41:40;;;;;;;3.35;3.08;;;;;;;32.00;36.98;100329.09;6337836;22;20023;-72
2021/06/14 10:44:11;;;;;;;3.30;3.00;;;;;;;31.48;37.86;100331.09;6339568;22;20308;-72
2021/06/14 10:46:48;;;;;;;2.88;2.67;;;;;;;30.77;37.73;100334.06;6338866;22;20014;-72
2021/06/14 10:49:18;;;;;;;4.00;3.75;;;;;;;30.86;37.46;100329.50;6338205;22;20014;-72
2021/06/14 10:52:01;;;;;;;3.45;2.90;;;;;;;30.71;38.45;100326.69;6338333;22;20002;-72
2021/06/14 10:54:37;;;;;;;5.28;2.70;;;;;;;30.57;39.88;100325.38;6339910;22;20006;-72
2021/06/14 10:57:09;;;;;;;3.13;2.92;;;;;;;31.87;36.68;100317.22;6338386;22;20006;-72
2021/06/14 10:59:45;;;;;;;2.80;2.60;;;;;;;31.96;36.38;100321.97;6338928;22;20011;-72
2021/06/14 11:02:12;;;;;;;3.53;2.78;;;;;;;32.10;36.33;100320.28;6338180;22;20060;-72
2021/06/14 11:04:42;;;;;;;2.50;2.35;;;;;;;32.71;33.86;100317.13;6338279;22;20006;-71
2021/06/14 11:07:30;;;;;;;2.80;2.50;;;;;;;32.33;33.21;100319.16;6338995;22;20042;-72
2021/06/14 11:10:01;;;;;;;4.13;2.40;;;;;;;31.93;32.37;100300.00;6338266;22;20093;-71
2021/06/14 11:12:28;;;;;;;2.75;2.55;;;;;;;31.97;34.52;100312.06;6339095;22;20301;-72
2021/06/14 11:14:55;;;;;;;4.93;3.78;;;;;;;32.58;33.63;100308.91;6338231;22;20011;-73
2021/06/14 11:17:20;;;;;;;2.83;2.63;;;;;;;31.32;35.36;100308.72;6338269;22;20064;-73
2021/06/14 11:19:49;;;;;;;5.55;2.78;;;;;;;31.76;35.03;100299.81;6338703;22;20006;-72
2021/06/14 11:22:17;;;;;;;5.90;2.35;;;;;;;31.53;34.75;100295.88;6337939;22;20064;-72
2021/06/14 11:24:44;;;;;;;2.83;2.55;;;;;;;30.89;36.88;100291.16;6339773;22;19999;-72
2021/06/14 11:27:10;;;;;;;3.15;2.95;;;;;;;30.84;39.75;100286.13;6337965;22;20006;-73
2021/06/14 11:29:51;;;;;;;5.35;3.40;;;;;;;30.78;41.16;100292.56;6338003;22;19998;-73
2021/06/14 11:32:20;;;;;;;2.90;2.70;;;;;;;30.11;42.64;100294.38;6338074;22;20034;-73
2021/06/14 11:34:50;;;;;;;3.20;2.72;;;;;;;29.60;42.11;100278.31;6338119;22;20093;-72
2021/06/14 11:37:16;;;;;;;4.30;2.58;;;;;;;30.02;41.06;100280.13;6338161;22;20006;-73
2021/06/14 11:39:43;;;;;;;4.28;2.75;;;;;;;29.82;40.92;100271.41;6338024;22;20019;-72